Latest Weather Observations for Argyle

IDW60801

Issued at 6:04 pm WST Thursday 21 September 2017 (issued every 30 minutes, with the page automatically refreshed every 10 minutes)

About weather observations | Map of weather stations | Latest weather observations for WA | Other Formats
Station Details ID: 002064 Name: ARGYLE AERODROME Lat: -16.64 Lon: 128.45 Height: 164.0 m
Data from the previous 72 hours. | See also: Recent months at Argyle
Date/Time
WST
Temp
°C
App
Temp
°C
Dew
Point
°C
Rel
Hum
%
Delta-T
°C
Wind Press
QNH
hPa
Press
MSL
hPa
Rain since
9am
mm
Dir  Spd
km/h
Gust
km/h
Spd
kts
Gust
kts
21/06:00pm 32.7 29.0 0.2 12 16.0 N 9 9 5 5 1010.5 1009.4 -
21/05:30pm 33.8 30.1 0.0 11 16.7 N 9 11 5 6 1010.2 - 0.0
21/05:00pm 35.0 30.7 -1.3 10 17.7 NNE 11 15 6 8 1009.9 - 0.0
21/04:30pm 36.0 32.1 -1.2 9 18.3 NNE 9 15 5 8 1009.7 - 0.0
21/04:00pm 37.0 51.0 36.8 99 0.2 ENE 13 20 7 11 1009.6 - 0.0
21/03:30pm 36.9 37.9 16.8 30 13.0 ENE 7 13 4 7 1009.6 - 0.0
21/03:00pm 37.1 32.1 -1.3 9 19.0 E 15 22 8 12 1009.6 1008.5 0.0
21/02:30pm 37.5 33.7 -0.6 9 19.1 E 9 15 5 8 1009.8 - 0.0
21/02:00pm 37.6 33.2 -2.4 8 19.5 NE 11 24 6 13 1010.1 - 0.0
21/01:30pm 37.6 33.6 -2.4 8 19.5 ENE 9 19 5 10 1010.4 - 0.0
21/01:00pm 36.7 32.7 -2.2 8 18.9 ENE 9 20 5 11 1010.9 - 0.0
21/12:30pm 37.6 33.3 -1.9 8 19.4 ENE 11 20 6 11 1011.5 - 0.0
21/12:00pm 36.7 32.5 -1.2 9 18.7 SE 11 20 6 11 1012.0 1011.0 0.0
21/11:30am 35.7 31.1 -0.8 10 18.0 ENE 13 24 7 13 1012.9 - 0.0
21/11:00am 35.9 31.3 -1.2 9 18.2 ESE 13 20 7 11 1013.4 - 0.0
21/10:30am 35.3 31.3 -2.5 9 18.1 NE 9 17 5 9 1013.9 - 0.0
21/10:00am 34.9 30.1 -2.8 9 17.9 E 13 19 7 10 1014.4 - 0.0
21/09:30am 34.1 28.5 -2.7 9 17.4 ESE 17 24 9 13 1014.8 - 0.0
21/09:00am 33.4 29.7 -0.3 11 16.5 ESE 9 15 5 8 1015.0 1013.9 0.0
21/08:30am 32.2 30.0 0.9 13 15.5 N 2 7 1 4 1015.1 - 0.0
21/08:00am 30.0 28.9 5.0 20 13.1 CALM 0 0 0 0 1015.2 - 0.0
21/07:30am 28.2 27.6 7.2 26 11.3 CALM 0 0 0 0 1015.2 - 0.0
21/07:00am 25.4 24.2 7.9 32 9.4 ESE 4 9 2 5 1015.1 - 0.0
21/06:30am 23.1 20.7 7.0 35 8.4 ESE 9 13 5 7 1014.9 - 0.0
21/06:00am 22.6 19.6 5.9 34 8.5 SSE 11 13 6 7 1014.4 1013.3 0.0
21/05:30am 20.0 17.8 6.1 40 7.0 SE 7 9 4 5 1014.0 - 0.0
21/05:00am 22.5 20.6 7.4 37 7.9 S 7 11 4 6 1013.7 - 0.0
21/04:30am 23.7 21.3 5.4 30 9.3 SSW 7 11 4 6 1013.4 - 0.0
21/04:00am 23.2 22.0 6.3 33 8.7 SSW 2 9 1 5 1013.2 - 0.0
21/03:30am 22.7 20.8 6.9 36 8.2 SW 6 7 3 4 1013.0 - 0.0
21/03:00am 22.7 20.8 6.6 35 8.3 WSW 6 7 3 4 1012.7 1011.6 0.0
21/02:30am 23.1 20.5 6.2 33 8.7 SW 9 9 5 5 1012.5 - 0.0
21/02:00am 23.6 22.1 8.5 38 8.1 S 6 7 3 4 1012.4 - 0.0
21/01:30am 24.5 22.6 6.7 32 9.3 S 6 7 3 4 1012.6 - 0.0
21/01:00am 24.2 22.5 5.7 30 9.5 WSW 4 7 2 4 1012.6 - 0.0
21/12:30am 24.1 21.9 6.1 31 9.3 WSW 7 7 4 4 1012.5 - 0.0
21/12:00am 23.6 22.0 6.4 33 8.9 NW 4 9 2 5 1012.7 1011.6 0.0
 
Date/Time
WST
Temp
°C
App
Temp
°C
Dew
Point
°C
Rel
Hum
%
Delta-T
°C
Wind Press
QNH
hPa
Press
MSL
hPa
Rain since
9am
mm
Dir  Spd
km/h
Gust
km/h
Spd
kts
Gust
kts
20/11:30pm 25.7 23.6 6.7 29 10.0 SE 7 9 4 5 1012.9 - 0.0
20/11:00pm 24.5 21.7 7.0 32 9.2 E 11 13 6 7 1013.1 - 0.0
20/10:30pm 25.1 22.6 6.6 30 9.7 E 9 11 5 6 1013.1 - 0.0
20/10:00pm 25.3 23.4 7.7 32 9.4 E 7 19 4 10 1013.0 - 0.0
20/09:30pm 27.0 25.1 7.7 29 10.4 WSW 7 9 4 5 1013.1 - 0.0
20/09:00pm 27.6 25.5 6.5 26 11.2 WSW 7 7 4 4 1013.0 1011.9 0.0
20/08:30pm 28.6 26.0 6.2 24 11.9 SW 9 11 5 6 1013.0 - 0.0
20/08:00pm 28.8 26.3 6.5 24 11.9 W 9 9 5 5 1012.9 - 0.0
20/07:30pm 29.1 26.5 6.2 23 12.2 W 9 9 5 5 1012.7 - 0.0
20/07:00pm 29.4 28.8 7.6 25 11.9 CALM 0 7 0 4 1012.6 - 0.0
20/06:30pm 31.2 28.2 6.1 20 13.5 N 11 11 6 6 1012.1 - 0.0
20/06:00pm 31.9 29.7 6.2 20 13.9 N 7 9 4 5 1011.9 1010.9 0.0
20/05:30pm 32.3 30.3 7.3 21 13.8 NNE 7 7 4 4 1011.7 - 0.0
20/05:00pm 33.9 31.3 6.0 17 15.2 NE 9 11 5 6 1011.5 - 0.0
20/04:30pm 35.0 31.6 4.2 14 16.4 NNE 11 20 6 11 1011.3 - 0.0
20/04:00pm 35.6 33.1 4.5 14 16.7 SE 7 13 4 7 1011.3 - 0.0
20/03:30pm 36.2 31.5 3.2 13 17.4 ENE 17 24 9 13 1011.3 - 0.0
20/03:00pm 36.2 33.5 5.5 15 16.8 NE 9 20 5 11 1011.4 1010.3 0.0
20/02:30pm 36.1 32.3 4.1 13 17.1 NNE 13 17 7 9 1011.6 - 0.0
20/02:00pm 35.7 32.9 5.0 15 16.6 S 9 13 5 7 1012.0 - 0.0
20/01:30pm 36.3 32.6 4.2 13 17.2 NE 13 24 7 13 1012.5 - 0.0
20/01:00pm 36.5 33.1 6.1 15 16.8 E 13 22 7 12 1012.9 - 0.0
20/12:30pm 35.1 30.8 7.1 17 15.6 SE 19 26 10 14 1013.5 - 0.0
20/12:00pm 34.5 31.2 8.1 19 14.9 ENE 15 28 8 15 1014.1 1013.0 0.0
20/11:30am 35.5 32.2 7.9 18 15.6 E 15 28 8 15 1014.6 - 0.0
20/11:00am 34.7 31.0 7.8 19 15.1 E 17 28 9 15 1015.2 - 0.0
20/10:30am 33.3 30.4 6.3 18 14.7 ESE 11 17 6 9 1015.6 - 0.0
20/10:00am 32.6 29.0 5.2 18 14.6 E 13 24 7 13 1016.1 - 0.0
20/09:30am 32.3 28.2 4.6 17 14.6 E 15 22 8 12 1016.5 - 0.0
20/09:00am 31.1 27.0 4.1 18 14.0 E 15 26 8 14 1016.7 1015.6 0.0
20/08:30am 30.2 25.7 -0.3 14 14.6 E 13 19 7 10 1016.8 - 0.0
20/08:00am 29.3 25.2 -2.7 12 14.6 ESE 9 15 5 8 1016.9 - 0.0
20/07:30am 28.1 23.6 -6.5 10 14.6 SE 9 13 5 7 1016.9 - 0.0
20/07:00am 27.1 22.7 -6.1 11 14.0 SSE 9 13 5 7 1016.6 - 0.0
20/06:30am 25.2 21.6 -3.6 14 12.5 E 6 7 3 4 1016.3 - 0.0
20/06:00am 23.0 19.5 -6.6 13 11.9 NE 4 - 2 - - 1014.8 -
20/05:30am 21.5 17.5 -5.4 16 10.9 WNW 7 9 4 5 1015.3 - 0.0
20/05:00am 20.3 16.0 -4.9 18 10.2 WNW 9 11 5 6 1015.0 - 0.0
20/04:30am 20.3 16.4 -4.9 18 10.2 W 7 9 4 5 1014.7 - 0.0
20/04:00am 21.3 18.6 -6.4 15 11.0 CALM 0 0 0 0 1014.6 - 0.0
20/03:30am 22.1 19.1 -5.3 15 11.2 WSW 2 7 1 4 1014.4 - 0.0
20/03:00am 22.7 20.0 -6.3 14 11.7 CALM 0 0 0 0 1013.9 1012.8 0.0
20/02:30am 21.2 17.7 -2.7 20 10.2 N 6 7 3 4 1014.0 - 0.0
20/02:00am 22.3 18.7 -3.7 17 11.0 NE 6 9 3 5 1013.9 - 0.0
20/01:30am 22.9 19.3 -3.7 16 11.3 S 6 9 3 5 1013.7 - 0.0
20/01:00am 24.8 20.6 -4.1 14 12.4 S 9 11 5 6 1013.8 - 0.0
20/12:30am 24.0 19.5 -3.3 16 11.8 S 11 17 6 9 1013.9 - 0.0
20/12:00am 24.0 20.3 -4.3 15 12.0 SW 6 9 3 5 1013.9 1012.8 0.0
 
Date/Time
WST
Temp
°C
App
Temp
°C
Dew
Point
°C
Rel
Hum
%
Delta-T
°C
Wind Press
QNH
hPa
Press
MSL
hPa
Rain since
9am
mm
Dir  Spd
km/h
Gust
km/h
Spd
kts
Gust
kts
19/11:30pm 23.0 20.6 -3.4 17 11.3 CALM 0 0 0 0 1014.2 - 0.0
19/11:00pm 23.9 21.1 -3.5 16 11.8 W 2 6 1 3 1014.3 - 0.0
19/10:30pm 22.9 19.3 -1.9 19 10.9 W 7 11 4 6 1014.5 - 0.0
19/10:00pm 24.8 21.3 -3.1 15 12.2 S 6 7 3 4 1014.6 - 0.0
19/09:30pm 24.9 21.6 -1.5 17 11.9 S 6 7 3 4 1014.7 - 0.0
19/09:00pm 26.6 23.0 -2.3 15 13.0 SSE 7 9 4 5 1014.8 1013.7 0.0
19/08:30pm 27.4 23.6 -4.0 12 13.8 SSE 7 7 4 4 1014.7 - 0.0
19/08:00pm 28.1 24.1 -2.1 14 13.8 SSW 9 11 5 6 1014.6 - 0.0
19/07:30pm 26.7 21.8 -6.8 10 13.9 SW 11 13 6 7 1014.2 - 0.0
19/07:00pm 28.0 24.4 -7.3 9 14.7 SSE 4 9 2 5 1014.0 - 0.0
19/06:30pm 29.5 26.0 -1.6 13 14.5 NE 7 9 4 5 1013.6 - 0.0
19/06:00pm 30.1 26.4 -3.3 11 15.2 NE 7 11 4 6 1013.3 1012.2 0.0
19/05:30pm 31.2 27.5 -2.6 11 15.7 NE 7 13 4 7 1012.9 - 0.0
19/05:00pm 33.4 29.0 -6.2 7 17.6 ENE 9 13 5 7 1012.5 - 0.0
19/04:30pm 35.1 28.6 -12.7 4 19.4 ENE 17 28 9 15 1012.0 - 0.0
19/04:00pm 35.9 28.8 -16.6 3 20.2 E 19 28 10 15 1011.7 - 0.0
19/03:30pm 36.6 29.8 -19.5 2 20.8 E 17 30 9 16 1011.7 - 0.0
19/03:00pm 36.7 29.5 -20.3 2 20.9 E 19 28 10 15 1011.8 1010.8 0.0
19/02:30pm 36.7 29.9 -18.6 2 20.8 E 17 28 9 15 1012.0 - 0.0
19/02:00pm 37.2 29.7 -22.5 2 21.3 ENE 20 28 11 15 1012.2 - 0.0
19/01:30pm 37.4 30.6 -18.5 2 21.2 E 17 30 9 16 1012.8 - 0.0
19/01:00pm 37.3 30.5 -19.6 2 21.2 ESE 17 28 9 15 1013.4 - 0.0
19/12:30pm 35.7 29.8 -17.1 3 20.1 ESE 13 22 7 12 1014.0 - 0.0
19/12:00pm 35.5 28.5 -16.0 3 19.9 ENE 19 32 10 17 1014.5 1013.4 0.0
19/11:30am 35.4 28.8 -14.3 3 19.7 ESE 17 28 9 15 1015.3 - 0.0
19/11:00am 34.1 27.9 -15.0 3 19.0 E 15 20 8 11 1016.0 - 0.0
19/10:30am 33.8 26.8 -15.9 3 18.9 E 19 30 10 16 1016.5 - 0.0
19/09:30am 31.9 25.3 -15.7 4 17.8 E 17 26 9 14 1017.7 - 0.0
19/09:00am 31.3 25.6 -12.8 5 17.2 ESE 13 19 7 10 1017.8 1016.7 0.0
19/08:30am 29.9 25.3 -7.8 8 15.8 ESE 9 13 5 7 1017.9 - 0.0
19/08:00am 28.7 23.8 -11.4 6 15.6 SSE 9 13 5 7 1017.9 - 0.0
19/07:30am 27.2 23.0 -9.9 8 14.6 ESE 6 11 3 6 1017.9 - 0.0
19/07:00am 25.1 21.3 -5.5 13 12.8 SSE 6 7 3 4 1017.7 - 0.0
19/06:30am 22.2 17.5 -8.6 12 11.8 S 9 13 5 7 1017.4 - 0.0
19/06:00am 19.5 15.3 -8.3 14 10.4 W 7 9 4 5 1016.9 1015.8 0.0
19/05:30am 16.7 12.2 -6.8 19 8.8 NW 9 11 5 6 1016.6 - 0.0
19/05:00am 18.3 14.2 -7.0 17 9.6 N 7 9 4 5 1016.2 - 0.0
19/04:30am 19.1 14.5 -8.2 15 10.2 ENE 9 11 5 6 1016.0 - 0.0
19/04:00am 20.9 16.8 -8.9 12 11.2 W 6 7 3 4 1015.6 - 0.0
19/03:30am 20.7 15.6 -9.5 12 11.2 WSW 11 11 6 6 1015.4 - 0.0
19/03:00am 19.7 14.6 -9.5 13 10.7 WSW 11 13 6 7 1015.2 1014.1 0.0
19/02:30am 19.0 14.9 -8.5 14 10.2 S 6 11 3 6 1015.1 - 0.0
19/02:00am 20.1 16.3 -5.4 17 10.2 SE 6 9 3 5 1015.2 - 0.0
19/01:30am 20.4 16.3 -9.2 13 11.0 SE 6 6 3 3 1015.2 - 0.0
19/01:00am 19.6 16.1 -6.8 16 10.2 ESE 4 9 2 5 1015.5 - 0.0
19/12:30am 22.3 18.1 -7.6 13 11.7 E 7 11 4 6 1015.8 - 0.0
19/12:00am 22.3 17.8 -7.0 13 11.6 E 9 9 5 5 1016.0 1014.9 0.0
 
Date/Time
WST
Temp
°C
App
Temp
°C
Dew
Point
°C
Rel
Hum
%
Delta-T
°C
Wind Press
QNH
hPa
Press
MSL
hPa
Rain since
9am
mm
Dir  Spd
km/h
Gust
km/h
Spd
kts
Gust
kts
18/11:30pm 23.0 18.8 -7.9 12 12.1 E 7 9 4 5 1016.5 - 0.0
18/11:00pm 22.0 18.1 -4.6 16 11.0 E 7 9 4 5 1016.6 - 0.0
18/10:30pm 23.2 19.1 -8.5 11 12.3 SSE 6 6 3 3 1016.6 - 0.0
18/10:00pm 23.6 20.0 -7.8 12 12.4 S 4 6 2 3 1016.7 - 0.0
18/09:30pm 24.1 20.0 -9.4 10 12.9 WSW 6 7 3 4 1016.6 - 0.0
18/09:00pm 24.0 20.5 -10.5 9 13.0 SE 2 9 1 5 1016.6 1015.5 0.0
18/08:30pm 24.1 21.2 -8.0 11 12.7 CALM 0 0 0 0 1016.5 - 0.0
18/08:00pm 25.7 21.6 -9.1 9 13.7 ESE 6 7 3 4 1016.4 - 0.0
18/07:30pm 26.1 22.8 -1.3 16 12.5 E 6 7 3 4 1016.3 - 0.0
18/07:00pm 26.5 23.9 -4.6 12 13.4 CALM 0 0 0 0 1016.0 - 0.0
18/06:30pm 27.5 24.1 -1.8 14 13.4 SSE 6 7 3 4 1015.5 - 0.0

Other Formats:

Comma delimited format used in spreadsheet applications
http://www.bom.gov.au/fwo/IDW60801/IDW60801.94217.axf

JavaScript Object Notation format (JSON) in row-major order
http://www.bom.gov.au/fwo/IDW60801/IDW60801.94217.json